createdAt,value
2019-03-08T00:01:11.711Z,18.17
2019-03-08T00:03:41.180Z,17.57
2019-03-08T00:06:10.734Z,19.27
2019-03-08T00:08:40.264Z,19.17
2019-03-08T00:11:09.885Z,18.93
2019-03-08T00:13:39.342Z,18.20
2019-03-08T00:16:08.827Z,19.63
2019-03-08T00:18:38.312Z,20.70
2019-03-08T00:21:07.810Z,19.47
2019-03-08T00:23:37.597Z,18.70
2019-03-08T00:26:07.100Z,18.57
2019-03-08T00:28:36.561Z,17.50
2019-03-08T00:31:06.042Z,18.83
2019-03-08T00:33:35.528Z,19.20
2019-03-08T00:36:05.015Z,17.77
2019-03-08T00:38:34.548Z,17.73
2019-03-08T00:41:04.068Z,17.43
2019-03-08T00:43:33.560Z,17.73
2019-03-08T00:46:03.122Z,18.00
2019-03-08T00:48:32.586Z,17.40
2019-03-08T00:51:02.334Z,17.73
2019-03-08T00:53:31.847Z,17.80
2019-03-08T00:56:01.359Z,18.20
2019-03-08T00:58:30.913Z,17.27
2019-03-08T01:01:00.425Z,16.60
2019-03-08T01:03:29.892Z,16.77
2019-03-08T01:05:59.331Z,16.83
2019-03-08T01:08:28.899Z,17.57
2019-03-08T01:10:58.784Z,16.60
2019-03-08T01:13:28.334Z,15.83
2019-03-08T01:15:57.952Z,17.97
2019-03-08T01:18:27.782Z,16.70
2019-03-08T01:20:57.281Z,16.93
2019-03-08T01:23:26.846Z,16.90
2019-03-08T01:25:56.346Z,16.70
2019-03-08T01:28:25.845Z,16.50
2019-03-08T01:30:55.358Z,15.57
2019-03-08T01:33:24.823Z,15.23
2019-03-08T01:35:54.327Z,14.47
2019-03-08T01:38:23.837Z,14.63
2019-03-08T01:40:53.413Z,13.57
2019-03-08T01:43:22.889Z,13.47
2019-03-08T01:45:52.644Z,14.00
2019-03-08T01:48:22.094Z,14.83
2019-03-08T01:50:51.577Z,15.27
2019-03-08T01:53:21.055Z,13.87
2019-03-08T01:55:50.635Z,14.17
2019-03-08T01:58:20.155Z,14.80
2019-03-08T02:00:49.638Z,13.93
2019-03-08T02:03:19.195Z,13.23
2019-03-08T02:05:48.695Z,14.67
2019-03-08T02:08:18.242Z,14.57
2019-03-08T02:10:47.755Z,13.97
2019-03-08T02:13:17.523Z,14.80
2019-03-08T02:15:47.067Z,13.60
2019-03-08T02:18:16.590Z,14.30
2019-03-08T02:20:46.141Z,16.07
2019-03-08T02:23:15.626Z,16.30
2019-03-08T02:25:45.736Z,14.43
2019-03-08T02:28:15.340Z,14.67
2019-03-08T02:30:44.831Z,14.30
2019-03-08T02:33:14.363Z,15.77
2019-03-08T02:35:43.899Z,16.00
2019-03-08T02:38:13.402Z,15.90
2019-03-08T02:40:43.197Z,17.20
2019-03-08T02:43:18.664Z,17.80
2019-03-08T02:45:48.159Z,14.80
2019-03-08T02:48:17.671Z,15.03
2019-03-08T02:50:47.186Z,14.13
2019-03-08T02:53:17.016Z,13.63
2019-03-08T02:55:46.521Z,14.10
2019-03-08T02:58:16.001Z,16.40
2019-03-08T03:00:46.906Z,17.17
2019-03-08T03:03:17.171Z,15.10
2019-03-08T03:05:46.810Z,14.97
2019-03-08T03:08:16.257Z,14.27
2019-03-08T03:10:49.343Z,14.43
2019-03-08T03:13:18.818Z,15.40
2019-03-08T03:15:48.317Z,16.77
2019-03-08T03:18:17.842Z,14.27
2019-03-08T03:20:47.377Z,18.30
2019-03-08T03:23:16.855Z,15.50
2019-03-08T03:25:46.410Z,18.10
2019-03-08T03:28:15.898Z,18.37
2019-03-08T03:30:45.397Z,18.13
2019-03-08T03:33:15.106Z,18.70
2019-03-08T03:35:44.586Z,17.20
2019-03-08T03:38:14.126Z,21.10
2019-03-08T03:40:43.632Z,20.97
2019-03-08T03:43:13.138Z,23.47
2019-03-08T03:45:42.626Z,24.03
2019-03-08T03:48:12.176Z,25.60
2019-03-08T03:50:41.776Z,27.87
2019-03-08T03:53:11.263Z,28.33
2019-03-08T03:55:40.745Z,28.53
2019-03-08T03:58:10.355Z,25.90
2019-03-08T04:00:40.123Z,26.73
2019-03-08T04:03:09.663Z,27.47
2019-03-08T04:05:39.205Z,23.37
2019-03-08T04:08:08.724Z,24.53
2019-03-08T04:10:38.268Z,24.60
2019-03-08T04:13:07.807Z,24.47
2019-03-08T04:15:37.350Z,24.60
2019-03-08T04:18:06.934Z,23.57
2019-03-08T04:20:36.477Z,23.00
2019-03-08T04:23:06.012Z,24.77
2019-03-08T04:25:35.591Z,23.07
2019-03-08T04:28:05.388Z,20.37
2019-03-08T04:30:34.878Z,21.13
2019-03-08T04:33:04.368Z,20.77
2019-03-08T04:35:33.846Z,19.23
2019-03-08T04:38:03.399Z,19.07
2019-03-08T04:40:32.872Z,19.87
2019-03-08T04:43:02.343Z,18.37
2019-03-08T04:45:31.839Z,18.27
2019-03-08T04:48:01.342Z,18.27
2019-03-08T04:50:30.862Z,18.67
2019-03-08T04:53:00.343Z,16.77
2019-03-08T04:55:30.122Z,18.47
2019-03-08T04:57:59.649Z,18.00
2019-03-08T05:00:29.259Z,18.03
2019-03-08T05:02:58.744Z,16.90
2019-03-08T05:05:28.309Z,16.27
2019-03-08T05:07:57.807Z,16.83
2019-03-08T05:10:27.308Z,16.13
2019-03-08T05:12:56.835Z,17.10
2019-03-08T05:15:26.338Z,17.07
2019-03-08T05:17:55.806Z,16.47
2019-03-08T05:20:25.333Z,16.83
2019-03-08T05:22:54.807Z,16.63
2019-03-08T05:25:24.302Z,16.63
2019-03-08T05:27:53.809Z,16.67
2019-03-08T05:30:23.664Z,23.77
2019-03-08T05:32:53.137Z,17.07
2019-03-08T05:35:22.598Z,16.70
2019-03-08T05:37:52.385Z,17.70
2019-03-08T05:40:22.308Z,16.03
2019-03-08T05:42:51.815Z,15.97
2019-03-08T05:45:21.654Z,16.17
2019-03-08T05:47:51.187Z,17.33
2019-03-08T05:50:20.680Z,20.73
2019-03-08T05:52:50.185Z,20.50
2019-03-08T05:55:19.672Z,20.13
2019-03-08T05:57:49.531Z,21.00
2019-03-08T06:00:20.529Z,22.00
2019-03-08T06:02:50.037Z,21.03
2019-03-08T06:05:19.802Z,24.63
2019-03-08T06:07:49.318Z,24.17
2019-03-08T06:10:32.785Z,24.33
2019-03-08T06:13:02.328Z,24.20
2019-03-08T06:15:31.957Z,24.77
2019-03-08T06:18:01.439Z,28.43
2019-03-08T06:20:31.146Z,29.83
2019-03-08T06:23:00.658Z,33.50
2019-03-08T06:25:30.259Z,33.80
2019-03-08T06:27:59.759Z,38.60
2019-03-08T06:30:29.290Z,37.53
2019-03-08T06:32:59.063Z,40.20
2019-03-08T06:35:28.646Z,39.23
2019-03-08T06:37:58.165Z,39.10
2019-03-08T06:40:27.686Z,39.27
2019-03-08T06:42:57.227Z,41.00
2019-03-08T06:45:26.722Z,39.13
2019-03-08T06:47:56.255Z,40.03
2019-03-08T06:50:25.766Z,41.97
2019-03-08T06:52:55.311Z,39.67
2019-03-08T06:55:24.982Z,37.80
2019-03-08T06:58:04.567Z,40.80
2019-03-08T07:00:59.385Z,40.60
2019-03-08T07:03:28.877Z,37.23
2019-03-08T07:05:58.394Z,31.30
2019-03-08T07:08:27.903Z,29.27
2019-03-08T07:10:57.414Z,29.60
2019-03-08T07:13:28.143Z,22.57
2019-03-08T07:15:57.881Z,23.57
2019-03-08T07:18:27.368Z,24.03
2019-03-08T07:21:20.879Z,23.90
2019-03-08T07:24:05.065Z,25.27
2019-03-08T07:27:11.972Z,19.17
2019-03-08T07:30:03.179Z,18.30
2019-03-08T07:32:44.064Z,12.77
2019-03-08T07:35:28.186Z,16.03
2019-03-08T07:38:31.815Z,18.07
2019-03-08T07:41:16.598Z,20.70
2019-03-08T07:44:05.006Z,22.47
2019-03-08T07:46:49.878Z,22.20
2019-03-08T07:49:50.677Z,19.40
2019-03-08T07:52:41.625Z,17.70
2019-03-08T07:55:34.686Z,18.33
2019-03-08T07:58:17.192Z,17.70
2019-03-08T08:01:05.655Z,17.03
2019-03-08T08:03:42.136Z,15.10
2019-03-08T08:06:19.722Z,16.77
2019-03-08T08:09:23.446Z,16.20
2019-03-08T08:12:14.643Z,18.37
2019-03-08T08:15:02.097Z,18.03
2019-03-08T08:17:56.320Z,20.03
2019-03-08T08:20:52.789Z,20.00
2019-03-08T08:23:47.124Z,21.27
2019-03-08T08:26:26.297Z,17.70
2019-03-08T08:29:24.011Z,16.57
2019-03-08T08:32:15.238Z,21.90
2019-03-08T08:35:02.323Z,18.77
2019-03-08T08:37:53.922Z,18.80
2019-03-08T08:40:56.859Z,22.87
2019-03-08T08:43:48.070Z,22.60
2019-03-08T08:46:42.532Z,21.80
2019-03-08T08:49:37.336Z,22.73
2019-03-08T08:52:24.651Z,21.80
2019-03-08T08:55:13.136Z,21.83
2019-03-08T08:58:10.373Z,20.43
2019-03-08T09:00:55.534Z,21.80
2019-03-08T09:04:02.391Z,21.53
2019-03-08T09:06:52.870Z,20.87
2019-03-08T09:09:47.147Z,20.47
2019-03-08T09:12:35.571Z,21.17
2019-03-08T09:15:24.622Z,20.50
2019-03-08T09:18:16.005Z,20.60
2019-03-08T09:21:00.177Z,20.47
2019-03-08T09:23:50.689Z,20.50
2019-03-08T09:26:34.624Z,20.87
2019-03-08T09:29:28.736Z,21.33
2019-03-08T09:32:29.385Z,20.20
2019-03-08T09:35:13.415Z,21.07
2019-03-08T09:38:10.978Z,20.73
2019-03-08T09:41:08.545Z,19.63
2019-03-08T09:43:44.547Z,20.10
2019-03-08T09:46:22.904Z,27.37
2019-03-08T09:49:09.051Z,19.77
2019-03-08T09:51:44.021Z,23.97
2019-03-08T09:54:22.319Z,22.00
2019-03-08T09:57:12.579Z,21.63
2019-03-08T09:59:59.725Z,20.30
2019-03-08T10:02:54.244Z,20.73
2019-03-08T10:05:41.447Z,21.90
2019-03-08T10:08:32.691Z,21.47
2019-03-08T10:11:19.845Z,19.93
2019-03-08T10:14:08.230Z,20.63
2019-03-08T10:16:46.255Z,19.90
2019-03-08T10:19:29.908Z,19.67
2019-03-08T10:22:21.201Z,19.17
2019-03-08T10:25:27.889Z,18.83
2019-03-08T10:28:15.318Z,19.03
2019-03-08T10:30:59.455Z,18.73
2019-03-08T10:33:50.985Z,20.67
2019-03-08T10:36:37.978Z,18.37
2019-03-08T10:39:30.838Z,19.27
2019-03-08T10:42:10.411Z,19.43
2019-03-08T10:44:52.495Z,19.10
2019-03-08T10:47:38.703Z,18.57
2019-03-08T10:50:18.948Z,19.77
2019-03-08T10:53:04.096Z,18.87
2019-03-08T10:55:54.343Z,18.73
2019-03-08T10:58:49.121Z,18.63
2019-03-08T11:01:42.868Z,18.80
2019-03-08T11:04:31.280Z,18.33
2019-03-08T11:07:14.429Z,19.23
2019-03-08T11:10:03.835Z,18.17
2019-03-08T11:12:52.263Z,19.50
2019-03-08T11:15:41.147Z,18.10
2019-03-08T11:18:28.389Z,18.60
2019-03-08T11:21:17.054Z,16.33
2019-03-08T11:23:57.556Z,15.10
2019-03-08T11:27:04.812Z,14.10
2019-03-08T11:29:39.275Z,14.37
2019-03-08T11:32:23.076Z,16.37
2019-03-08T11:35:00.199Z,13.17
2019-03-08T11:38:03.731Z,14.30
2019-03-08T11:41:04.320Z,13.07
2019-03-08T11:44:11.535Z,12.97
2019-03-08T11:47:03.049Z,12.60
2019-03-08T11:49:42.547Z,12.87
2019-03-08T11:52:46.142Z,10.97
2019-03-08T11:55:22.355Z,10.83
2019-03-08T11:58:13.569Z,11.30
2019-03-08T12:01:08.885Z,10.40
2019-03-08T12:03:56.220Z,9.67
2019-03-08T12:06:44.960Z,9.70
2019-03-08T12:09:42.514Z,9.33
2019-03-08T12:12:30.951Z,10.60
2019-03-08T12:15:19.369Z,10.77
2019-03-08T12:18:07.959Z,9.17
2019-03-08T12:20:46.930Z,9.37
2019-03-08T12:23:32.381Z,10.70
2019-03-08T12:26:27.004Z,8.57
2019-03-08T12:29:15.465Z,5.33
2019-03-08T12:32:16.263Z,4.10
2019-03-08T12:34:52.363Z,6.00
2019-03-08T12:37:27.673Z,6.60
2019-03-08T12:40:10.224Z,5.80
2019-03-08T12:42:56.774Z,6.90
2019-03-08T12:45:51.293Z,8.33
2019-03-08T12:48:38.642Z,9.70
2019-03-08T12:51:42.432Z,8.43
2019-03-08T12:54:37.066Z,7.87
2019-03-08T12:57:23.944Z,6.47
2019-03-08T13:00:02.549Z,6.50
2019-03-08T13:02:51.290Z,6.07
2019-03-08T13:05:45.497Z,6.10
2019-03-08T13:08:24.718Z,6.20
2019-03-08T13:10:54.231Z,6.10
2019-03-08T13:13:23.766Z,5.70
2019-03-08T13:15:53.263Z,5.00
2019-03-08T13:18:22.752Z,4.63
2019-03-08T13:20:52.250Z,5.53
2019-03-08T13:23:21.799Z,5.33
2019-03-08T13:25:51.278Z,4.77
2019-03-08T13:28:20.766Z,5.47
2019-03-08T13:30:50.271Z,6.20
2019-03-08T13:33:19.935Z,4.63
2019-03-08T13:35:49.910Z,4.10
2019-03-08T13:38:19.432Z,4.00
2019-03-08T13:40:48.985Z,4.10
2019-03-08T13:43:18.518Z,3.00
2019-03-08T13:45:48.086Z,3.73
2019-03-08T13:48:17.577Z,3.77
2019-03-08T13:50:47.041Z,2.97
2019-03-08T13:53:16.548Z,3.30
2019-03-08T13:55:46.056Z,3.10
2019-03-08T13:58:15.561Z,3.30
2019-03-08T14:00:45.230Z,4.20
2019-03-08T14:03:14.726Z,4.87
2019-03-08T14:05:44.247Z,4.80
2019-03-08T14:08:13.778Z,4.83
2019-03-08T14:10:43.354Z,4.63
2019-03-08T14:13:12.927Z,4.90
2019-03-08T14:15:43.472Z,4.43
2019-03-08T14:18:12.954Z,4.57
2019-03-08T14:20:42.758Z,3.63
2019-03-08T14:23:12.250Z,3.73
2019-03-08T14:25:41.827Z,3.50
2019-03-08T14:28:12.013Z,3.60
2019-03-08T14:30:47.792Z,3.30
2019-03-08T14:33:17.295Z,3.57
2019-03-08T14:35:46.765Z,3.90
2019-03-08T14:38:16.242Z,3.37
2019-03-08T14:41:04.786Z,4.13
2019-03-08T14:43:57.764Z,3.70
2019-03-08T14:46:41.377Z,4.10
2019-03-08T14:49:10.905Z,4.07
2019-03-08T14:51:40.464Z,4.70
2019-03-08T14:54:10.853Z,4.60
2019-03-08T14:56:40.620Z,3.70
2019-03-08T14:59:11.253Z,4.10
2019-03-08T15:01:41.479Z,4.30
2019-03-08T15:04:11.000Z,4.37
2019-03-08T15:06:40.529Z,4.20
2019-03-08T15:09:13.051Z,4.07
2019-03-08T15:11:42.580Z,4.73
2019-03-08T15:14:12.140Z,4.30
2019-03-08T15:16:41.667Z,3.73
2019-03-08T15:19:11.236Z,4.20
2019-03-08T15:21:48.421Z,4.40
2019-03-08T15:24:12.188Z,4.53
2019-03-08T15:26:41.699Z,4.17
2019-03-08T15:29:11.221Z,5.03
2019-03-08T15:31:40.715Z,4.80
2019-03-08T15:34:14.581Z,4.90
2019-03-08T15:36:44.169Z,4.73
2019-03-08T15:39:13.681Z,4.63
2019-03-08T15:41:43.192Z,4.73
2019-03-08T15:44:12.685Z,4.60
2019-03-08T15:46:42.645Z,5.10
2019-03-08T15:49:12.156Z,5.80
2019-03-08T15:51:41.710Z,5.13
2019-03-08T15:54:11.303Z,5.60
2019-03-08T15:56:40.826Z,5.37
2019-03-08T15:59:10.547Z,4.90
2019-03-08T16:01:40.052Z,5.37
2019-03-08T16:04:12.177Z,5.13
2019-03-08T16:06:43.991Z,4.70
2019-03-08T16:09:12.194Z,5.33
2019-03-08T16:11:41.736Z,4.93
2019-03-08T16:14:13.031Z,5.30
2019-03-08T16:16:43.992Z,4.83
2019-03-08T16:19:13.602Z,5.27
2019-03-08T16:21:46.777Z,5.27
2019-03-08T16:24:14.568Z,5.47
2019-03-08T16:26:44.113Z,5.47
2019-03-08T16:29:13.522Z,4.90
2019-03-08T16:31:55.205Z,5.10
2019-03-08T16:34:24.507Z,5.10
2019-03-08T16:36:59.127Z,5.47
2019-03-08T16:39:35.386Z,5.37
2019-03-08T16:42:17.780Z,5.27
2019-03-08T16:44:57.515Z,5.27
2019-03-08T16:47:58.047Z,6.10
2019-03-08T16:50:56.242Z,6.00
2019-03-08T16:53:45.499Z,6.10
2019-03-08T16:56:39.855Z,5.70
2019-03-08T16:59:21.687Z,5.93
2019-03-08T17:02:15.225Z,5.93
2019-03-08T17:05:09.401Z,6.70
2019-03-08T17:07:56.667Z,7.40
2019-03-08T17:10:57.529Z,6.70
2019-03-08T17:13:43.609Z,7.93
2019-03-08T17:16:32.287Z,7.30
2019-03-08T17:19:15.780Z,7.23
2019-03-08T17:22:07.609Z,8.37
2019-03-08T17:24:54.895Z,8.77
2019-03-08T17:27:40.012Z,9.80
2019-03-08T17:30:31.529Z,12.20
2019-03-08T17:33:24.665Z,10.67
2019-03-08T17:36:16.492Z,11.13
2019-03-08T17:39:01.035Z,11.30
2019-03-08T17:41:52.348Z,11.17
2019-03-08T17:44:37.771Z,9.87
2019-03-08T17:47:23.836Z,9.83
2019-03-08T17:50:16.052Z,9.40
2019-03-08T17:53:03.127Z,9.27
2019-03-08T17:56:00.887Z,9.37
2019-03-08T17:58:41.535Z,14.70
2019-03-08T18:01:28.830Z,11.13
2019-03-08T18:04:17.304Z,10.33
2019-03-08T18:07:03.606Z,10.87
2019-03-08T18:09:45.615Z,11.27
2019-03-08T18:12:37.090Z,10.80
2019-03-08T18:15:28.875Z,11.33
2019-03-08T18:18:20.185Z,9.30
2019-03-08T18:21:07.351Z,9.30
2019-03-08T18:23:54.421Z,10.60
2019-03-08T18:26:51.863Z,9.10
2019-03-08T18:29:39.336Z,8.50
2019-03-08T18:32:26.659Z,7.83
2019-03-08T18:35:06.674Z,6.10
2019-03-08T18:37:49.635Z,6.50
2019-03-08T18:40:36.686Z,6.33
2019-03-08T18:43:27.910Z,7.00
2019-03-08T18:46:19.094Z,7.93
2019-03-08T18:48:59.143Z,8.80
2019-03-08T18:51:44.861Z,9.47
2019-03-08T18:54:42.248Z,9.03
2019-03-08T18:57:32.220Z,9.80
2019-03-08T19:00:29.932Z,11.87
2019-03-08T19:03:21.608Z,10.63
2019-03-08T19:06:10.029Z,10.57
2019-03-08T19:08:46.118Z,8.23
2019-03-08T19:11:25.187Z,7.60
2019-03-08T19:14:26.146Z,8.73
2019-03-08T19:17:08.688Z,7.77
2019-03-08T19:20:00.360Z,8.00
2019-03-08T19:22:38.659Z,7.30
2019-03-08T19:25:32.082Z,7.10
2019-03-08T19:28:26.646Z,7.30
2019-03-08T19:31:05.732Z,7.70
2019-03-08T19:33:54.006Z,6.87
2019-03-08T19:36:38.357Z,8.40
2019-03-08T19:39:33.471Z,9.27
2019-03-08T19:42:16.447Z,15.50
2019-03-08T19:44:55.387Z,13.53
2019-03-08T19:47:43.852Z,11.50
2019-03-08T19:50:38.382Z,11.77
2019-03-08T19:53:35.824Z,13.00
2019-03-08T19:56:27.440Z,13.67
2019-03-08T19:59:03.168Z,14.30
2019-03-08T20:01:51.618Z,17.57
2019-03-08T20:04:39.102Z,13.63
2019-03-08T20:07:16.621Z,19.53
2019-03-08T20:09:57.122Z,17.90
2019-03-08T20:12:41.722Z,17.40
2019-03-08T20:15:23.175Z,16.60
2019-03-08T20:18:07.325Z,18.27
2019-03-08T20:21:02.199Z,16.33
2019-03-08T20:23:56.265Z,15.37
2019-03-08T20:26:44.724Z,15.20
2019-03-08T20:29:45.424Z,14.30
2019-03-08T20:32:24.428Z,14.07
2019-03-08T20:35:09.005Z,14.37
2019-03-08T20:37:46.155Z,13.27
2019-03-08T20:40:24.406Z,13.50
2019-03-08T20:43:01.741Z,13.83
2019-03-08T20:45:39.529Z,14.03
2019-03-08T20:48:09.018Z,14.00
2019-03-08T20:50:38.510Z,15.53
2019-03-08T20:53:08.020Z,16.20
2019-03-08T20:55:37.655Z,16.27
2019-03-08T20:58:07.163Z,16.80
2019-03-08T21:00:36.799Z,17.43
2019-03-08T21:03:06.304Z,16.20
2019-03-08T21:05:35.810Z,15.83
2019-03-08T21:08:05.330Z,15.50
2019-03-08T21:10:34.846Z,16.93
2019-03-08T21:13:04.323Z,17.23
2019-03-08T21:15:33.925Z,14.30
2019-03-08T21:18:03.455Z,18.33
2019-03-08T21:20:32.987Z,18.80
2019-03-08T21:23:02.701Z,18.53
2019-03-08T21:25:32.178Z,18.23
2019-03-08T21:28:01.683Z,17.23
2019-03-08T21:30:31.204Z,16.90
2019-03-08T21:33:00.708Z,17.60
2019-03-08T21:35:30.365Z,17.87
2019-03-08T21:37:59.852Z,15.93
2019-03-08T21:40:29.321Z,16.07
2019-03-08T21:42:58.801Z,17.37
2019-03-08T21:45:28.354Z,15.90
2019-03-08T21:47:58.155Z,17.33
2019-03-08T21:50:27.697Z,20.13
2019-03-08T21:52:57.270Z,15.27
2019-03-08T21:55:26.845Z,16.63
2019-03-08T21:57:56.365Z,16.37
2019-03-08T22:00:26.112Z,17.57
2019-03-08T22:02:55.609Z,16.87
2019-03-08T22:05:28.198Z,18.17
2019-03-08T22:07:57.733Z,21.83
2019-03-08T22:10:52.344Z,18.57
2019-03-08T22:13:21.921Z,23.10
2019-03-08T22:15:51.402Z,17.20
2019-03-08T22:18:20.889Z,16.67
2019-03-08T22:20:50.807Z,16.67
2019-03-08T22:23:20.306Z,17.67
2019-03-08T22:25:49.823Z,19.93
2019-03-08T22:28:19.328Z,18.37
2019-03-08T22:30:48.807Z,18.37
2019-03-08T22:33:18.324Z,27.27
2019-03-08T22:35:47.796Z,21.43
2019-03-08T22:38:17.279Z,18.10
2019-03-08T22:40:46.814Z,20.43
2019-03-08T22:43:16.285Z,20.13
2019-03-08T22:45:45.766Z,21.17
2019-03-08T22:48:15.273Z,20.97
2019-03-08T22:50:44.738Z,18.67
2019-03-08T22:53:14.247Z,16.40
2019-03-08T22:55:43.757Z,18.77
2019-03-08T22:58:13.238Z,20.57
2019-03-08T23:01:01.259Z,19.90
2019-03-08T23:03:31.207Z,23.70
2019-03-08T23:06:00.758Z,17.47
2019-03-08T23:08:30.520Z,17.20
2019-03-08T23:11:00.052Z,16.20
2019-03-08T23:13:29.530Z,17.77
2019-03-08T23:15:59.050Z,17.47
2019-03-08T23:18:28.490Z,38.63
2019-03-08T23:20:58.235Z,23.20
2019-03-08T23:23:27.733Z,17.70
2019-03-08T23:25:57.211Z,22.40
2019-03-08T23:28:32.035Z,16.27
2019-03-08T23:31:05.952Z,15.87
2019-03-08T23:33:35.397Z,14.90
2019-03-08T23:36:04.872Z,14.93
2019-03-08T23:38:34.387Z,14.97
2019-03-08T23:41:03.871Z,15.07
2019-03-08T23:43:33.430Z,15.23
2019-03-08T23:46:02.919Z,13.87
2019-03-08T23:48:32.418Z,15.73
2019-03-08T23:51:01.894Z,20.07
2019-03-08T23:53:31.351Z,18.17
2019-03-08T23:56:00.847Z,14.93
2019-03-08T23:58:30.362Z,16.03
